TAF KSJT
KSJT 081720Z 0818/0918 21008KT P6SM SCT250 FM090600 22013KT P6SM BKN250=
METAR KSJT
WC KSJT
WS KSJT
WV KSJT